Time;durP1;ratioP1;P1;durP2;ratioP2;P2;SDS_P1;SDS_P2;PMS_P1;PMS_P2;Temp;Humidity;BMP_temperature;BMP_pressure;BME280_temperature;BME280_humidity;BME280_pressure;Samples;Min_cycle;Max_cycle;Signal;HPM_P1;HPM_P2
2022/02/17 00:00:37;;;;;;;1.63;0.60;;;9.70;99.90;;;;;;5150002;27;20972;-52
2022/02/17 00:03:06;;;;;;;0.53;0.33;;;9.70;99.90;;;;;;5149952;27;20909;-51
2022/02/17 00:05:34;;;;;;;0.60;0.40;;;9.70;99.90;;;;;;5148820;27;20493;-52
2022/02/17 00:08:02;;;;;;;0.70;0.37;;;9.70;99.90;;;;;;5150154;27;20798;-52
2022/02/17 00:10:31;;;;;;;1.00;0.47;;;9.70;99.90;;;;;;5150253;27;20533;-53
2022/02/17 00:13:01;;;;;;;0.77;0.40;;;9.70;99.90;;;;;;5149716;27;20851;-53
2022/02/17 00:15:31;;;;;;;0.80;0.47;;;9.70;99.90;;;;;;5147251;27;20427;-52
2022/02/17 00:18:01;;;;;;;0.60;0.40;;;9.70;99.90;;;;;;5136367;27;20934;-52
2022/02/17 00:20:29;;;;;;;0.50;0.40;;;9.70;99.90;;;;;;5143545;27;20890;-51
2022/02/17 00:22:57;;;;;;;0.60;0.40;;;9.70;99.90;;;;;;5128996;28;20443;-52
2022/02/17 00:25:28;;;;;;;1.10;0.50;;;9.70;99.90;;;;;;5140183;27;20419;-52
2022/02/17 00:27:56;;;;;;;0.80;0.40;;;9.70;99.90;;;;;;5148728;27;20471;-53
2022/02/17 00:30:28;;;;;;;0.50;0.33;;;9.70;99.90;;;;;;5128114;27;20452;-51
2022/02/17 00:32:56;;;;;;;0.70;0.30;;;9.70;99.90;;;;;;5094612;28;20884;-49
2022/02/17 00:35:25;;;;;;;0.63;0.50;;;9.70;99.90;;;;;;5124114;27;20459;-54
2022/02/17 00:37:54;;;;;;;0.50;0.30;;;9.70;99.90;;;;;;5111807;28;20803;-52
2022/02/17 00:40:22;;;;;;;0.50;0.40;;;9.70;99.90;;;;;;5121833;27;20459;-51
2022/02/17 00:42:50;;;;;;;1.00;0.60;;;9.70;99.90;;;;;;5122462;27;20439;-49
2022/02/17 00:45:19;;;;;;;1.20;0.40;;;9.70;99.90;;;;;;5104656;28;20783;-53
2022/02/17 00:47:50;;;;;;;0.60;0.40;;;9.70;99.90;;;;;;5125332;27;20432;-54
2022/02/17 00:50:19;;;;;;;0.50;0.40;;;9.70;99.90;;;;;;5135999;27;20908;-53
2022/02/17 00:52:47;;;;;;;0.50;0.40;;;9.70;99.90;;;;;;5114806;27;20442;-52
2022/02/17 00:55:15;;;;;;;0.70;0.50;;;9.70;99.90;;;;;;5112886;27;20471;-53
2022/02/17 00:57:44;;;;;;;1.37;0.50;;;9.70;99.90;;;;;;5148381;27;20542;-52
2022/02/17 01:00:13;;;;;;;0.70;0.40;;;9.70;99.90;;;;;;5114856;27;20471;-52
2022/02/17 01:02:41;;;;;;;0.60;0.50;;;9.70;99.90;;;;;;5111445;27;20431;-55
2022/02/17 01:05:11;;;;;;;0.60;0.50;;;9.70;99.90;;;;;;5125906;27;20892;-51
2022/02/17 01:07:39;;;;;;;0.80;0.60;;;9.70;99.90;;;;;;5149799;27;20427;-52
2022/02/17 01:10:08;;;;;;;1.03;0.40;;;9.70;99.90;;;;;;5131587;27;20463;-52
2022/02/17 01:12:37;;;;;;;0.90;0.60;;;9.70;99.90;;;;;;5117046;27;20434;-52
2022/02/17 01:15:07;;;;;;;1.47;0.53;;;9.70;99.90;;;;;;5109300;28;20460;-53
2022/02/17 01:17:35;;;;;;;0.60;0.50;;;9.70;99.90;;;;;;5111910;28;20424;-51
2022/02/17 01:20:05;;;;;;;1.60;0.70;;;9.70;99.90;;;;;;5121817;27;20498;-55
2022/02/17 01:22:36;;;;;;;1.20;0.60;;;9.70;99.90;;;;;;5109823;28;20934;-51
2022/02/17 01:25:04;;;;;;;1.87;0.90;;;9.70;99.90;;;;;;5109990;27;20495;-53
2022/02/17 01:27:35;;;;;;;3.70;0.73;;;9.70;99.90;;;;;;5110439;28;20448;-51
2022/02/17 01:30:06;;;;;;;0.90;0.50;;;9.70;99.90;;;;;;5125659;27;21012;-51
2022/02/17 01:32:35;;;;;;;0.60;0.60;;;9.70;99.90;;;;;;5132264;27;20420;-50
2022/02/17 01:35:05;;;;;;;2.50;0.70;;;9.70;99.90;;;;;;5122999;27;20651;-51
2022/02/17 01:37:39;;;;;;;1.53;0.80;;;9.70;99.90;;;;;;5132205;27;20423;-53
2022/02/17 01:40:09;;;;;;;1.00;0.60;;;9.70;99.90;;;;;;5096139;27;20499;-55
2022/02/17 01:42:37;;;;;;;1.23;0.70;;;9.80;99.90;;;;;;5118119;27;20496;-52
2022/02/17 01:45:08;;;;;;;1.27;0.70;;;9.70;99.90;;;;;;5112853;27;20807;-51
2022/02/17 01:47:39;;;;;;;2.00;0.80;;;9.80;99.90;;;;;;5131140;27;20435;-55
2022/02/17 01:50:08;;;;;;;1.27;0.70;;;9.80;99.90;;;;;;5111477;27;20471;-52
2022/02/17 01:52:36;;;;;;;2.70;1.30;;;9.80;99.90;;;;;;5112675;27;20439;-51
2022/02/17 01:55:06;;;;;;;2.30;1.00;;;9.70;99.90;;;;;;5112049;27;20481;-51
2022/02/17 01:57:39;;;;;;;3.10;0.70;;;9.80;99.90;;;;;;5112256;27;20430;-52
2022/02/17 02:00:11;;;;;;;3.60;0.90;;;9.80;99.90;;;;;;5108260;28;20497;-52
2022/02/17 02:02:46;;;;;;;1.90;0.70;;;9.80;99.90;;;;;;5111070;28;20423;-53
2022/02/17 02:05:20;;;;;;;4.83;1.20;;;9.80;99.90;;;;;;5105530;27;20981;-52
2022/02/17 02:07:48;;;;;;;3.73;1.17;;;9.80;99.90;;;;;;5129045;27;20979;-52
2022/02/17 02:10:28;;;;;;;2.40;0.83;;;9.80;99.90;;;;;;5092217;28;20627;-51
2022/02/17 02:12:56;;;;;;;3.30;1.23;;;9.80;99.90;;;;;;5123089;27;20443;-51
2022/02/17 02:15:45;;;;;;;5.17;2.20;;;9.70;99.90;;;;;;5112131;27;20448;-51
2022/02/17 02:18:15;;;;;;;4.23;1.80;;;9.80;99.90;;;;;;5107635;28;20433;-51
2022/02/17 02:20:56;;;;;;;6.20;1.10;;;9.80;99.90;;;;;;5092613;28;20470;-51
2022/02/17 02:23:35;;;;;;;6.03;1.33;;;9.80;99.90;;;;;;5107096;28;20551;-52
2022/02/17 02:26:05;;;;;;;6.17;2.13;;;9.80;99.90;;;;;;5109151;28;20914;-51
2022/02/17 02:28:35;;;;;;;4.63;1.00;;;9.80;99.90;;;;;;5108849;27;21277;-55
2022/02/17 02:31:05;;;;;;;4.67;1.83;;;9.80;99.90;;;;;;5107667;28;20550;-51
2022/02/17 02:33:33;;;;;;;2.30;1.43;;;9.80;99.90;;;;;;5108378;27;20547;-54
2022/02/17 02:36:03;;;;;;;1.70;1.00;;;9.80;99.90;;;;;;5119634;27;20798;-55
2022/02/17 02:38:51;;;;;;;3.17;1.30;;;9.80;99.90;;;;;;5128233;27;20562;-52
2022/02/17 02:41:24;;;;;;;5.27;1.50;;;9.80;99.90;;;;;;5120937;27;20992;-54
2022/02/17 02:43:53;;;;;;;4.97;1.60;;;9.80;99.90;;;;;;5124315;27;20456;-51
2022/02/17 02:46:23;;;;;;;4.37;1.20;;;9.80;99.90;;;;;;5107924;28;20523;-52
2022/02/17 02:48:54;;;;;;;5.10;1.90;;;9.80;99.90;;;;;;5106921;27;20467;-54
2022/02/17 02:51:24;;;;;;;3.00;1.20;;;9.80;99.90;;;;;;5123061;27;20463;-52
2022/02/17 02:53:52;;;;;;;7.20;1.67;;;9.80;99.90;;;;;;5128976;27;20467;-53
2022/02/17 02:56:21;;;;;;;4.10;1.93;;;9.80;99.90;;;;;;5114583;27;20432;-53
2022/02/17 02:58:49;;;;;;;3.63;2.00;;;9.80;99.90;;;;;;5107985;28;20817;-51
2022/02/17 03:01:20;;;;;;;5.07;1.70;;;9.80;99.90;;;;;;5108106;28;20769;-52
2022/02/17 03:03:50;;;;;;;6.43;1.60;;;9.80;99.90;;;;;;5114750;27;20537;-53
2022/02/17 03:06:19;;;;;;;5.97;2.43;;;9.80;99.90;;;;;;5108684;28;20477;-53
2022/02/17 03:08:49;;;;;;;7.40;2.50;;;9.80;99.90;;;;;;5109200;28;20982;-51
2022/02/17 03:11:25;;;;;;;4.60;2.10;;;9.80;99.90;;;;;;5108661;28;20978;-52
2022/02/17 03:13:55;;;;;;;5.80;1.63;;;9.80;99.90;;;;;;5107088;28;20473;-50
2022/02/17 03:16:27;;;;;;;6.40;2.50;;;9.80;99.90;;;;;;5127974;27;20443;-54
2022/02/17 03:18:57;;;;;;;5.43;2.37;;;9.80;99.90;;;;;;5124064;27;20989;-53
2022/02/17 03:21:25;;;;;;;10.70;2.87;;;9.80;99.90;;;;;;5124836;27;20480;-52
2022/02/17 03:23:57;;;;;;;4.10;1.57;;;9.80;99.90;;;;;;5127806;27;21069;-50
2022/02/17 03:26:31;;;;;;;6.60;1.80;;;9.80;99.90;;;;;;5128616;28;20431;-52
2022/02/17 03:29:01;;;;;;;10.83;1.97;;;9.80;99.90;;;;;;5127072;27;20566;-53
2022/02/17 03:31:29;;;;;;;5.27;2.20;;;9.80;99.90;;;;;;5127784;28;21008;-54
2022/02/17 03:34:06;;;;;;;7.87;2.20;;;9.80;99.90;;;;;;5122419;28;21073;-51
2022/02/17 03:36:35;;;;;;;7.30;1.87;;;9.80;99.90;;;;;;5108144;28;20429;-53
2022/02/17 03:39:05;;;;;;;5.40;2.23;;;9.80;99.90;;;;;;5108101;28;20470;-51
2022/02/17 03:41:54;;;;;;;7.30;2.40;;;9.80;99.90;;;;;;5098086;28;20543;-52
2022/02/17 03:44:26;;;;;;;7.20;2.13;;;9.80;99.90;;;;;;5107385;28;20835;-52
2022/02/17 03:47:05;;;;;;;6.90;2.23;;;9.80;99.90;;;;;;5108019;28;20432;-53
2022/02/17 03:49:58;;;;;;;7.97;2.33;;;9.80;99.90;;;;;;5118229;28;20463;-52
2022/02/17 03:52:30;;;;;;;7.50;2.47;;;9.80;99.90;;;;;;5130416;28;20442;-53
2022/02/17 03:55:32;;;;;;;5.77;2.70;;;9.80;99.90;;;;;;5121975;28;20806;-50
2022/02/17 03:58:00;;;;;;;6.60;2.77;;;9.80;99.90;;;;;;5124296;28;20842;-51
2022/02/17 04:00:33;;;;;;;4.50;3.20;;;9.80;99.90;;;;;;5109373;28;20536;-49
2022/02/17 04:03:03;;;;;;;5.10;2.87;;;9.80;99.90;;;;;;5110586;27;20879;-53
2022/02/17 04:05:34;;;;;;;8.30;3.90;;;9.80;99.90;;;;;;5129468;27;20926;-51
2022/02/17 04:08:09;;;;;;;4.73;2.20;;;9.80;99.90;;;;;;5117424;27;20520;-51
2022/02/17 04:10:41;;;;;;;8.70;3.20;;;9.80;99.90;;;;;;5112915;28;20488;-51
2022/02/17 04:13:17;;;;;;;7.37;2.90;;;9.80;99.90;;;;;;5111376;28;20424;-49
2022/02/17 04:15:49;;;;;;;2.70;1.63;;;9.80;99.90;;;;;;5130253;27;20848;-52
2022/02/17 04:18:31;;;;;;;7.77;3.03;;;9.80;99.90;;;;;;5131539;27;20469;-56
2022/02/17 04:21:12;;;;;;;6.50;2.83;;;9.80;99.90;;;;;;5112998;28;20627;-52
2022/02/17 04:24:00;;;;;;;10.13;2.40;;;9.80;99.90;;;;;;5112512;28;20487;-51
2022/02/17 04:26:34;;;;;;;9.10;2.50;;;9.80;99.90;;;;;;5110894;27;21028;-53
2022/02/17 04:29:21;;;;;;;8.67;2.30;;;9.80;99.90;;;;;;5112387;27;20455;-52
2022/02/17 04:31:56;;;;;;;9.43;2.90;;;9.80;99.90;;;;;;5111446;28;20456;-52
2022/02/17 04:34:24;;;;;;;7.40;2.63;;;9.80;99.90;;;;;;5116359;27;20474;-53
2022/02/17 04:36:53;;;;;;;7.80;2.60;;;9.80;99.90;;;;;;5120611;27;20975;-50
2022/02/17 04:39:23;;;;;;;8.33;2.57;;;9.80;99.90;;;;;;5110956;28;20509;-53
2022/02/17 04:44:38;;;;;;;9.13;3.10;;;9.80;99.90;;;;;;5117446;27;20538;-55
2022/02/17 04:47:06;;;;;;;7.43;3.30;;;9.80;99.90;;;;;;5123627;27;20463;-55
2022/02/17 04:49:34;;;;;;;7.63;3.27;;;9.80;99.90;;;;;;5123474;27;20585;-51
2022/02/17 04:52:03;;;;;;;9.07;3.53;;;9.80;99.90;;;;;;5122018;27;20479;-54
2022/02/17 04:54:32;;;;;;;8.17;3.43;;;9.80;99.90;;;;;;5116498;27;20556;-51
2022/02/17 04:57:04;;;;;;;9.70;3.50;;;9.80;99.90;;;;;;5112463;27;20534;-52
2022/02/17 04:59:37;;;;;;;7.90;2.97;;;9.80;99.90;;;;;;5098035;28;20459;-52
2022/02/17 05:02:06;;;;;;;9.40;3.00;;;9.80;99.90;;;;;;5099686;28;20439;-52
2022/02/17 05:04:34;;;;;;;6.47;2.07;;;9.80;99.90;;;;;;5111559;27;20983;-52
2022/02/17 05:07:09;;;;;;;8.53;2.87;;;9.80;99.90;;;;;;5111149;28;20452;-54
2022/02/17 05:09:37;;;;;;;5.97;2.23;;;9.80;99.90;;;;;;5110599;28;20459;-49
2022/02/17 05:12:08;;;;;;;9.67;3.20;;;9.80;99.90;;;;;;5111685;27;20454;-51
2022/02/17 05:14:36;;;;;;;5.70;3.13;;;9.80;99.90;;;;;;5118865;27;20524;-51
2022/02/17 05:17:07;;;;;;;7.17;2.80;;;9.80;99.90;;;;;;5111067;28;20426;-54
2022/02/17 05:19:36;;;;;;;10.63;3.17;;;9.80;99.90;;;;;;5114069;27;20478;-51
2022/02/17 05:22:31;;;;;;;13.33;3.70;;;9.80;99.90;;;;;;5094930;28;20443;-53
2022/02/17 05:25:08;;;;;;;7.67;3.40;;;9.80;99.90;;;;;;5109557;28;20546;-50
2022/02/17 05:27:56;;;;;;;8.77;3.03;;;9.80;99.90;;;;;;5112220;27;20452;-51
2022/02/17 05:30:42;;;;;;;8.10;3.80;;;9.80;99.90;;;;;;5123246;27;21125;-52
2022/02/17 05:33:30;;;;;;;11.93;2.50;;;9.80;99.90;;;;;;5135388;27;20554;-53
2022/02/17 05:36:14;;;;;;;13.70;3.40;;;9.80;99.90;;;;;;5110063;27;20467;-52
2022/02/17 05:39:08;;;;;;;13.53;3.53;;;9.80;99.90;;;;;;5112789;27;20474;-50
2022/02/17 05:41:56;;;;;;;8.50;2.90;;;9.80;99.90;;;;;;5143838;27;20435;-53
2022/02/17 05:44:25;;;;;;;10.10;3.70;;;9.80;99.90;;;;;;5128316;27;20514;-53
2022/02/17 05:46:54;;;;;;;14.83;3.37;;;9.80;99.90;;;;;;5111143;28;20446;-52
2022/02/17 05:49:23;;;;;;;13.17;3.57;;;9.80;99.90;;;;;;5117384;27;20931;-51
2022/02/17 05:51:51;;;;;;;10.27;3.90;;;9.80;99.90;;;;;;5115175;27;20503;-54
2022/02/17 05:54:21;;;;;;;12.67;3.63;;;9.80;99.90;;;;;;5110104;28;20471;-52
2022/02/17 05:56:49;;;;;;;13.60;3.10;;;9.80;99.90;;;;;;5127187;27;20423;-51
2022/02/17 05:59:17;;;;;;;9.67;4.20;;;9.80;99.90;;;;;;5128892;27;20463;-49
2022/02/17 06:01:46;;;;;;;11.23;3.67;;;9.80;99.90;;;;;;5131651;27;20436;-52
2022/02/17 06:04:14;;;;;;;11.87;3.57;;;9.80;99.90;;;;;;5120802;27;20496;-51
2022/02/17 06:06:42;;;;;;;10.60;3.37;;;9.80;99.90;;;;;;5110735;28;20437;-52
2022/02/17 06:09:10;;;;;;;12.83;3.80;;;9.80;99.90;;;;;;5112461;27;21071;-54
2022/02/17 06:11:39;;;;;;;10.83;3.33;;;9.80;99.90;;;;;;5130959;27;20821;-53
2022/02/17 06:14:10;;;;;;;10.60;3.30;;;9.80;99.90;;;;;;5125529;27;20526;-53
2022/02/17 06:16:39;;;;;;;8.93;3.70;;;9.80;99.90;;;;;;5125661;27;20447;-52
2022/02/17 06:19:09;;;;;;;13.83;3.63;;;9.80;99.90;;;;;;5123337;27;20491;-51
2022/02/17 06:21:38;;;;;;;5.27;2.50;;;9.80;99.90;;;;;;5130754;27;21013;-52
2022/02/17 06:24:07;;;;;;;14.23;3.67;;;9.80;99.90;;;;;;5130499;27;20455;-54
2022/02/17 06:26:35;;;;;;;22.23;4.00;;;9.80;99.90;;;;;;5130869;27;20427;-53
2022/02/17 06:29:04;;;;;;;11.67;3.40;;;9.80;99.90;;;;;;5138202;27;20561;-52
2022/02/17 06:31:32;;;;;;;5.87;3.77;;;9.80;99.90;;;;;;5151309;27;20465;-52
2022/02/17 06:34:00;;;;;;;10.50;3.60;;;9.80;99.90;;;;;;5138935;27;20480;-56
2022/02/17 06:36:29;;;;;;;10.63;3.17;;;9.80;99.90;;;;;;5122775;27;20798;-53
2022/02/17 06:38:59;;;;;;;8.53;3.07;;;9.80;99.90;;;;;;5112278;27;20505;-54
2022/02/17 06:41:29;;;;;;;12.80;4.33;;;9.80;99.90;;;;;;5123494;27;20455;-53
2022/02/17 06:43:57;;;;;;;9.43;3.03;;;9.80;99.90;;;;;;5131104;27;20450;-51
2022/02/17 06:46:25;;;;;;;7.73;3.50;;;9.80;99.90;;;;;;5151652;27;20430;-54
2022/02/17 06:48:54;;;;;;;14.00;4.47;;;9.80;99.90;;;;;;5142019;27;20471;-53
2022/02/17 06:51:22;;;;;;;9.10;3.30;;;9.80;99.90;;;;;;5130307;27;20475;-53
2022/02/17 06:53:51;;;;;;;13.13;4.37;;;9.80;99.90;;;;;;5128551;27;20475;-51
2022/02/17 06:56:24;;;;;;;14.17;4.37;;;9.80;99.90;;;;;;5130405;27;20432;-52
2022/02/17 06:58:52;;;;;;;15.20;4.27;;;9.80;99.90;;;;;;5134627;27;20477;-51
2022/02/17 07:01:23;;;;;;;11.20;4.07;;;9.80;99.90;;;;;;5127277;27;20790;-53
2022/02/17 07:03:52;;;;;;;14.67;4.97;;;9.80;99.90;;;;;;5132330;27;20656;-52
2022/02/17 07:06:23;;;;;;;14.67;4.03;;;9.80;99.90;;;;;;5144826;27;20444;-52
2022/02/17 07:08:54;;;;;;;15.50;5.20;;;9.80;99.90;;;;;;5130609;27;20451;-54
2022/02/17 07:11:23;;;;;;;10.27;3.37;;;9.80;99.90;;;;;;5142137;27;20454;-53
2022/02/17 07:13:51;;;;;;;11.53;4.03;;;9.70;99.90;;;;;;5142571;27;20462;-52
2022/02/17 07:16:20;;;;;;;14.73;4.00;;;9.80;99.90;;;;;;5130183;27;20435;-51
2022/02/17 07:18:49;;;;;;;10.43;3.47;;;9.80;99.90;;;;;;5107024;28;20487;-52
2022/02/17 07:21:19;;;;;;;15.70;4.53;;;9.80;99.90;;;;;;5128185;27;20970;-49
2022/02/17 07:23:52;;;;;;;14.63;4.17;;;9.80;99.90;;;;;;5114145;27;20966;-50
2022/02/17 07:26:22;;;;;;;11.73;4.63;;;9.80;99.90;;;;;;5130548;27;20435;-53
2022/02/17 07:28:56;;;;;;;11.67;5.63;;;9.80;99.90;;;;;;5128355;27;20753;-52
2022/02/17 07:31:25;;;;;;;12.07;4.77;;;9.80;99.90;;;;;;5119766;28;20501;-52
2022/02/17 07:33:54;;;;;;;12.03;3.67;;;9.80;99.90;;;;;;5117557;27;20913;-50
2022/02/17 07:36:23;;;;;;;21.50;5.37;;;9.80;99.90;;;;;;5151307;27;20786;-52
2022/02/17 07:38:53;;;;;;;11.93;4.50;;;9.80;99.90;;;;;;5152401;27;20454;-50
2022/02/17 07:41:23;;;;;;;14.43;3.80;;;9.70;99.90;;;;;;5155527;27;20809;-52
2022/02/17 07:43:52;;;;;;;16.47;3.57;;;9.80;99.90;;;;;;5146013;27;20542;-53
2022/02/17 07:46:20;;;;;;;19.27;5.43;;;9.70;99.90;;;;;;5153427;27;20518;-54
2022/02/17 07:48:50;;;;;;;14.30;4.77;;;9.80;99.90;;;;;;5138457;27;20610;-53
2022/02/17 07:51:20;;;;;;;14.57;3.77;;;9.70;99.90;;;;;;5134403;27;20827;-50
2022/02/17 07:53:48;;;;;;;21.17;4.60;;;9.80;99.90;;;;;;5130387;27;20870;-51
2022/02/17 07:56:17;;;;;;;9.17;3.90;;;9.80;99.90;;;;;;5113735;28;20970;-52
2022/02/17 07:58:47;;;;;;;13.23;4.63;;;9.80;99.90;;;;;;5112517;27;20491;-53
2022/02/17 08:01:18;;;;;;;12.67;3.70;;;9.80;99.90;;;;;;5113249;28;20535;-52
2022/02/17 08:03:51;;;;;;;10.63;5.10;;;9.80;99.90;;;;;;5112969;27;20581;-54
2022/02/17 08:06:19;;;;;;;9.90;4.50;;;9.80;99.90;;;;;;5129557;27;20440;-52
2022/02/17 08:08:57;;;;;;;12.73;3.13;;;9.80;99.90;;;;;;5141234;27;20457;-53
2022/02/17 08:11:25;;;;;;;15.80;4.60;;;9.80;99.90;;;;;;5154699;27;20446;-50
2022/02/17 08:13:58;;;;;;;13.57;4.37;;;9.80;99.90;;;;;;5141385;27;20521;-52
2022/02/17 08:16:27;;;;;;;19.20;5.73;;;9.80;99.90;;;;;;5129972;27;20484;-53
2022/02/17 08:18:55;;;;;;;12.90;5.50;;;9.80;99.90;;;;;;5112821;27;20474;-52
2022/02/17 08:21:43;;;;;;;15.03;4.37;;;9.80;99.90;;;;;;5113255;27;20451;-51
2022/02/17 08:24:12;;;;;;;10.47;3.90;;;9.80;99.90;;;;;;5140205;27;20537;-52
2022/02/17 08:26:42;;;;;;;9.90;3.70;;;9.80;99.90;;;;;;5153577;27;20418;-53
2022/02/17 08:29:12;;;;;;;17.77;4.47;;;9.80;99.90;;;;;;5129244;27;20479;-52
2022/02/17 08:31:42;;;;;;;17.80;5.17;;;9.80;99.90;;;;;;5123387;27;20459;-51
2022/02/17 08:34:10;;;;;;;15.13;4.90;;;9.80;99.90;;;;;;5115799;27;20462;-54
2022/02/17 08:36:39;;;;;;;24.07;4.97;;;9.80;99.90;;;;;;5132634;27;21033;-53
2022/02/17 08:39:07;;;;;;;20.47;5.47;;;9.80;99.90;;;;;;5120614;27;21054;-51
2022/02/17 08:41:36;;;;;;;19.30;5.20;;;9.80;99.90;;;;;;5130892;27;20467;-52
2022/02/17 08:44:06;;;;;;;13.73;5.10;;;9.80;99.90;;;;;;5130999;27;20500;-53
2022/02/17 08:46:36;;;;;;;13.90;4.90;;;9.80;99.90;;;;;;5118446;27;20442;-53
2022/02/17 08:49:06;;;;;;;12.80;4.77;;;9.80;99.90;;;;;;5139728;27;20486;-51
2022/02/17 08:51:35;;;;;;;19.30;5.10;;;9.80;99.90;;;;;;5152165;27;20446;-52
2022/02/17 08:54:08;;;;;;;17.00;5.47;;;9.80;99.90;;;;;;5123530;27;20500;-52
2022/02/17 08:56:36;;;;;;;11.40;3.90;;;9.80;99.90;;;;;;5118728;27;20442;-51
2022/02/17 08:59:04;;;;;;;14.63;4.43;;;9.80;99.90;;;;;;5124024;27;20474;-51
2022/02/17 09:01:32;;;;;;;18.10;5.30;;;9.90;99.90;;;;;;5153263;27;20839;-56
2022/02/17 09:04:02;;;;;;;13.03;4.70;;;9.90;99.90;;;;;;5138576;27;20492;-53
2022/02/17 09:06:32;;;;;;;15.83;4.60;;;9.90;99.90;;;;;;5122750;27;20431;-52
2022/02/17 09:09:00;;;;;;;17.43;4.13;;;9.90;99.90;;;;;;5111572;27;21076;-51
2022/02/17 09:11:34;;;;;;;13.70;5.33;;;9.90;99.90;;;;;;5132365;27;20447;-51
2022/02/17 09:14:03;;;;;;;15.93;4.90;;;9.90;99.90;;;;;;5130365;27;20496;-51
2022/02/17 09:16:36;;;;;;;13.10;4.70;;;9.90;99.90;;;;;;5142760;27;20739;-52
2022/02/17 09:19:06;;;;;;;8.13;3.60;;;9.90;99.90;;;;;;5139414;27;20562;-50
2022/02/17 09:21:37;;;;;;;10.63;4.17;;;9.90;99.90;;;;;;5129858;27;20806;-51
2022/02/17 09:24:28;;;;;;;14.07;4.70;;;9.90;99.90;;;;;;5118010;27;20463;-51
2022/02/17 09:26:58;;;;;;;20.33;4.70;;;10.00;99.90;;;;;;5115532;27;20439;-52
2022/02/17 09:29:27;;;;;;;11.83;3.70;;;10.00;99.90;;;;;;5113831;27;21044;-51
2022/02/17 09:32:19;;;;;;;16.60;4.40;;;10.00;99.90;;;;;;5113635;28;20861;-50
2022/02/17 09:34:51;;;;;;;14.30;4.50;;;10.00;99.90;;;;;;5138323;27;20477;-53
2022/02/17 09:37:23;;;;;;;12.97;5.30;;;10.00;99.90;;;;;;5154213;27;20453;-50
2022/02/17 09:39:55;;;;;;;11.60;4.10;;;10.00;99.90;;;;;;5153431;27;20463;-53
2022/02/17 09:42:26;;;;;;;13.27;4.10;;;10.00;99.90;;;;;;5151395;27;20438;-53
2022/02/17 09:44:56;;;;;;;15.87;5.57;;;10.00;99.90;;;;;;5141213;27;20505;-50
2022/02/17 09:47:25;;;;;;;10.63;4.50;;;10.00;99.90;;;;;;5150809;27;20435;-49
2022/02/17 09:49:57;;;;;;;13.73;4.10;;;10.00;99.90;;;;;;5126362;27;20841;-50
2022/02/17 09:52:38;;;;;;;14.90;4.13;;;10.00;99.90;;;;;;5130670;27;20435;-52
2022/02/17 09:55:13;;;;;;;15.20;4.30;;;10.00;99.90;;;;;;5126951;27;20541;-50
2022/02/17 09:57:43;;;;;;;9.73;4.73;;;10.00;99.90;;;;;;5111290;27;20772;-54
2022/02/17 10:00:14;;;;;;;11.93;4.70;;;10.00;99.90;;;;;;5113578;27;20472;-53
2022/02/17 10:02:53;;;;;;;15.40;4.63;;;10.00;99.90;;;;;;5112340;27;20934;-50
2022/02/17 10:05:23;;;;;;;10.37;4.20;;;10.00;99.90;;;;;;5119185;27;20471;-49
2022/02/17 10:07:55;;;;;;;13.57;4.40;;;10.00;99.90;;;;;;5129009;27;20481;-50
2022/02/17 10:10:40;;;;;;;16.20;4.37;;;10.00;99.90;;;;;;5127615;27;20551;-52
2022/02/17 10:13:17;;;;;;;11.43;4.13;;;10.00;99.90;;;;;;5110102;27;20511;-55
2022/02/17 10:16:09;;;;;;;10.67;5.13;;;10.00;99.90;;;;;;5123524;27;20463;-55
2022/02/17 10:18:42;;;;;;;14.23;3.70;;;10.00;99.90;;;;;;5110867;27;20824;-52
2022/02/17 10:21:15;;;;;;;9.23;4.10;;;10.00;99.90;;;;;;5111804;28;20492;-51
2022/02/17 10:23:52;;;;;;;9.47;2.97;;;10.00;99.90;;;;;;5124454;27;20451;-51
2022/02/17 10:26:27;;;;;;;15.97;4.27;;;10.00;99.90;;;;;;5113073;27;20440;-52
2022/02/17 10:29:06;;;;;;;10.60;4.63;;;10.00;99.90;;;;;;5104989;27;20994;-52
2022/02/17 10:31:37;;;;;;;21.00;3.80;;;10.00;99.90;;;;;;5111321;28;20436;-55
2022/02/17 10:34:06;;;;;;;8.20;3.30;;;10.00;99.90;;;;;;5115831;27;20526;-50
2022/02/17 10:36:39;;;;;;;19.43;4.50;;;10.00;99.90;;;;;;5131757;27;20416;-54
2022/02/17 10:39:19;;;;;;;14.33;3.70;;;10.00;99.90;;;;;;5122457;27;20465;-53
2022/02/17 10:42:13;;;;;;;14.80;3.90;;;10.00;99.90;;;;;;5115127;27;20513;-51
2022/02/17 10:44:46;;;;;;;11.33;3.33;;;10.00;99.90;;;;;;5109613;27;20467;-51
2022/02/17 10:47:32;;;;;;;14.90;4.10;;;10.00;99.90;;;;;;5133881;27;20927;-53
2022/02/17 10:50:05;;;;;;;12.20;3.97;;;10.00;99.90;;;;;;5146213;27;20991;-51
2022/02/17 10:52:37;;;;;;;8.20;3.70;;;10.00;99.90;;;;;;5145068;27;20458;-52
2022/02/17 10:55:33;;;;;;;11.23;4.50;;;10.00;99.90;;;;;;5103899;27;20457;-52
2022/02/17 10:58:18;;;;;;;10.17;4.33;;;10.00;99.90;;;;;;5124411;27;20435;-52
2022/02/17 11:00:52;;;;;;;10.50;3.30;;;10.00;99.90;;;;;;5121670;27;20969;-53
2022/02/17 11:03:23;;;;;;;13.10;4.67;;;10.00;99.90;;;;;;5099460;28;20462;-51
2022/02/17 11:06:08;;;;;;;9.00;3.83;;;10.00;99.90;;;;;;5118795;27;20419;-52
2022/02/17 11:08:41;;;;;;;7.83;3.17;;;10.00;99.90;;;;;;5111556;27;20466;-52
2022/02/17 11:11:40;;;;;;;15.43;4.27;;;10.00;99.90;;;;;;5111281;27;20445;-52
2022/02/17 11:18:10;;;;;;;9.43;3.50;;;10.00;99.90;;;;;;5122897;27;21098;-51
2022/02/17 11:20:54;;;;;;;9.30;4.23;;;10.00;99.90;;;;;;5128677;27;20566;-52
2022/02/17 11:23:34;;;;;;;8.60;3.40;;;10.00;99.90;;;;;;5134322;27;20471;-53
2022/02/17 11:29:32;;;;;;;13.10;4.17;;;10.00;99.90;;;;;;5099358;28;20535;-51
2022/02/17 11:32:06;;;;;;;12.73;4.30;;;10.00;99.90;;;;;;5094837;28;20433;-52
2022/02/17 11:34:41;;;;;;;13.03;3.97;;;10.00;99.90;;;;;;5097592;28;20859;-53
2022/02/17 11:37:44;;;;;;;12.00;4.47;;;10.00;99.90;;;;;;5113774;28;20425;-50
2022/02/17 11:40:16;;;;;;;16.00;4.10;;;10.00;99.90;;;;;;5105770;28;20491;-53
2022/02/17 11:43:03;;;;;;;12.10;4.00;;;10.00;99.90;;;;;;5096565;28;20440;-52
2022/02/17 11:45:45;;;;;;;13.50;3.87;;;10.00;99.90;;;;;;5090650;28;20540;-52
2022/02/17 11:48:16;;;;;;;12.47;4.17;;;9.90;99.90;;;;;;5086885;28;20971;-52
2022/02/17 11:50:48;;;;;;;13.17;4.17;;;10.00;99.90;;;;;;5115108;28;20997;-52
2022/02/17 11:53:29;;;;;;;11.93;3.00;;;9.90;99.90;;;;;;5112865;28;20413;-54
2022/02/17 11:56:34;;;;;;;11.23;4.13;;;9.90;99.90;;;;;;5094185;28;20540;-52
2022/02/17 11:59:29;;;;;;;11.63;4.43;;;10.00;99.90;;;;;;5100029;28;20547;-53
2022/02/17 12:02:00;;;;;;;13.77;4.30;;;10.00;99.90;;;;;;5113512;28;20939;-51
2022/02/17 12:05:14;;;;;;;13.70;4.03;;;9.90;99.90;;;;;;5093744;28;20517;-53
2022/02/17 12:07:45;;;;;;;9.00;4.63;;;9.90;99.90;;;;;;5103075;28;20441;-54
2022/02/17 12:10:54;;;;;;;8.03;2.93;;;9.90;99.90;;;;;;5105169;28;21101;-51
2022/02/17 12:13:31;;;;;;;6.50;2.90;;;9.90;99.90;;;;;;5106515;28;21032;-53
2022/02/17 12:16:28;;;;;;;11.63;3.97;;;9.90;99.90;;;;;;5108324;28;20493;-49
2022/02/17 12:19:15;;;;;;;8.53;3.30;;;9.90;99.90;;;;;;5106119;28;20836;-50
2022/02/17 12:21:46;;;;;;;9.07;3.33;;;9.90;99.90;;;;;;5109242;28;20479;-52
2022/02/17 12:24:37;;;;;;;6.43;3.20;;;9.90;99.90;;;;;;5108200;28;20490;-51
2022/02/17 12:27:17;;;;;;;12.90;3.73;;;9.90;99.90;;;;;;5110808;28;20482;-51
2022/02/17 12:30:05;;;;;;;8.10;3.10;;;9.90;99.90;;;;;;5088242;28;20464;-52
2022/02/17 12:32:47;;;;;;;9.10;3.20;;;9.90;99.90;;;;;;5097273;28;20576;-53
2022/02/17 12:35:42;;;;;;;8.60;3.90;;;9.90;99.90;;;;;;5105549;28;20468;-52
2022/02/17 12:38:33;;;;;;;9.00;2.77;;;9.90;99.90;;;;;;5100720;28;20463;-53
2022/02/17 12:41:08;;;;;;;4.53;2.50;;;9.90;99.90;;;;;;5112386;28;20981;-51
2022/02/17 12:43:38;;;;;;;5.20;2.40;;;9.90;99.90;;;;;;5115145;27;20450;-52
2022/02/17 12:46:09;;;;;;;8.60;2.83;;;9.90;99.90;;;;;;5122333;27;20844;-52
2022/02/17 12:48:42;;;;;;;5.77;2.27;;;9.90;99.90;;;;;;5131498;27;20447;-55
2022/02/17 12:51:34;;;;;;;9.20;2.80;;;9.90;99.90;;;;;;5112444;27;20978;-56
2022/02/17 12:54:11;;;;;;;5.00;2.30;;;9.80;99.90;;;;;;5119487;27;20884;-53
2022/02/17 12:56:43;;;;;;;10.90;2.20;;;9.80;99.90;;;;;;5124940;27;20474;-52
2022/02/17 12:59:15;;;;;;;8.10;3.00;;;9.80;99.90;;;;;;5129399;27;21009;-53
2022/02/17 13:01:50;;;;;;;4.90;2.20;;;9.80;99.90;;;;;;5132724;27;20449;-51
2022/02/17 13:04:22;;;;;;;6.70;2.60;;;9.80;99.90;;;;;;5128364;27;20502;-51
2022/02/17 13:06:54;;;;;;;4.93;2.03;;;9.80;99.90;;;;;;5121630;27;20439;-52
2022/02/17 13:09:26;;;;;;;5.60;2.00;;;9.80;99.90;;;;;;5102726;28;21007;-54
2022/02/17 13:11:58;;;;;;;4.43;1.93;;;9.80;99.90;;;;;;5109334;28;20447;-50
2022/02/17 13:14:31;;;;;;;7.63;2.40;;;9.80;99.90;;;;;;5104588;28;20824;-51
2022/02/17 13:17:07;;;;;;;5.10;3.03;;;9.80;99.90;;;;;;5107368;28;20460;-52
2022/02/17 13:19:38;;;;;;;6.63;2.63;;;9.80;99.90;;;;;;5099892;28;20560;-50
2022/02/17 13:25:41;;;;;;;3.97;2.00;;;9.80;99.90;;;;;;5033332;28;20907;-50
2022/02/17 13:28:17;;;;;;;6.13;2.40;;;9.80;99.90;;;;;;5098825;27;20456;-52
2022/02/17 13:30:52;;;;;;;3.83;1.73;;;9.80;99.90;;;;;;5116250;27;20447;-53
2022/02/17 13:33:39;;;;;;;6.87;2.10;;;9.80;99.90;;;;;;5111022;28;20535;-53
2022/02/17 13:36:22;;;;;;;4.63;2.30;;;9.90;99.90;;;;;;5112441;27;20455;-52